createdAt,value
2016-04-28T00:00:04.775Z,78.47
2016-04-28T00:01:04.778Z,77.51
2016-04-28T00:02:04.764Z,76.46
2016-04-28T00:03:04.751Z,76.31
2016-04-28T00:04:04.724Z,76.21
2016-04-28T00:05:04.711Z,76.5
2016-04-28T00:06:04.682Z,76.02
2016-04-28T00:07:04.668Z,77.94
2016-04-28T00:08:04.656Z,78.47
2016-04-28T00:09:04.627Z,79.14
2016-04-28T00:10:04.614Z,78.34
2016-04-28T00:11:04.601Z,77.8
2016-04-28T00:12:04.573Z,77.51
2016-04-28T00:13:04.560Z,76.56
2016-04-28T00:14:04.563Z,76.89
2016-04-28T00:15:04.534Z,77.13
2016-04-28T00:16:04.505Z,77.33
2016-04-28T00:17:04.493Z,76.65
2016-04-28T00:18:04.479Z,77.26
2016-04-28T00:19:04.482Z,77.23
2016-04-28T00:20:07.422Z,77.61
2016-04-28T00:21:04.425Z,76.94
2016-04-28T00:22:04.428Z,77.42
2016-04-28T00:23:04.400Z,77.04
2016-04-28T00:24:04.386Z,76.56
2016-04-28T00:25:04.358Z,76.69
2016-04-28T00:26:04.204Z,76.31
2016-04-28T00:27:04.317Z,75.54
2016-04-28T00:28:04.319Z,75.73
2016-04-28T00:29:04.290Z,76.6
2016-04-28T00:30:04.294Z,76.02
2016-04-28T00:31:04.264Z,76.79
2016-04-28T00:32:04.236Z,76.84
2016-04-28T00:33:04.222Z,76.18
2016-04-28T00:34:04.210Z,76.69
2016-04-28T00:35:04.197Z,77.23
2016-04-28T00:36:04.168Z,77.61
2016-04-28T00:37:04.171Z,77.8
2016-04-28T00:38:04.143Z,77.33
2016-04-28T00:39:04.114Z,77.42
2016-04-28T00:40:04.148Z,77.23
2016-04-28T00:41:04.104Z,77.33
2016-04-28T00:42:04.075Z,76.84
2016-04-28T00:43:04.063Z,77.61
2016-04-28T00:44:04.049Z,76.37
2016-04-28T00:45:04.021Z,75.51
2016-04-28T00:46:04.007Z,76.02
2016-04-28T00:47:03.979Z,75.35
2016-04-28T00:48:03.982Z,76.75
2016-04-28T00:49:03.953Z,76.84
2016-04-28T00:50:03.940Z,75.89
2016-04-28T00:51:03.928Z,76.27
2016-04-28T00:52:03.915Z,75.64
2016-04-28T00:53:03.901Z,75.73
2016-04-28T00:54:03.873Z,75.64
2016-04-28T00:55:03.861Z,75.98
2016-04-28T00:56:04.628Z,75.64
2016-04-28T00:57:03.819Z,74.58
2016-04-28T00:58:03.822Z,75.35
2016-04-28T00:59:03.792Z,74.77
2016-04-28T01:00:03.780Z,74.77
2016-04-28T01:01:03.752Z,74.87
2016-04-28T01:02:03.738Z,74.4
2016-04-28T01:03:03.725Z,75.26
2016-04-28T01:04:03.697Z,75.02
2016-04-28T01:05:03.684Z,75.22
2016-04-28T01:06:03.671Z,75.6
2016-04-28T01:07:03.658Z,75.6
2016-04-28T01:08:03.629Z,75.12
2016-04-28T01:09:03.616Z,74.45
2016-04-28T01:10:03.604Z,74.68
2016-04-28T01:11:04.543Z,74.93
2016-04-28T01:12:03.827Z,75.79
2016-04-28T01:13:03.565Z,75.89
2016-04-28T01:14:03.537Z,75.6
2016-04-28T01:15:03.523Z,76.08
2016-04-28T01:16:03.510Z,76.37
2016-04-28T01:17:03.498Z,75.7
2016-04-28T01:18:03.469Z,76.08
2016-04-28T01:19:03.440Z,75.98
2016-04-28T01:20:03.428Z,75.7
2016-04-28T01:21:03.430Z,76.08
2016-04-28T01:22:03.386Z,74.84
2016-04-28T01:23:03.373Z,75.12
2016-04-28T01:24:03.359Z,75.79
2016-04-28T01:25:03.362Z,74.93
2016-04-28T01:26:03.381Z,74.65
2016-04-28T01:27:03.337Z,74.68
2016-04-28T01:28:03.308Z,74.68
2016-04-28T01:29:03.295Z,74.65
2016-04-28T01:30:03.267Z,75.16
2016-04-28T01:31:03.254Z,75.26
2016-04-28T01:32:03.241Z,75.22
2016-04-28T01:33:03.212Z,75.89
2016-04-28T01:34:03.199Z,75.79
2016-04-28T01:35:03.186Z,75.79
2016-04-28T01:36:03.158Z,75.89
2016-04-28T01:37:03.144Z,75.79
2016-04-28T01:38:03.133Z,75.22
2016-04-28T01:39:03.119Z,75.41
2016-04-28T01:40:03.091Z,75.98
2016-04-28T01:41:04.062Z,76.27
2016-04-28T01:42:02.908Z,77.48
2016-04-28T01:43:03.052Z,77.19
2016-04-28T01:44:03.024Z,76.27
2016-04-28T01:45:03.010Z,75.98
2016-04-28T01:46:02.997Z,75.98
2016-04-28T01:47:02.985Z,75.98
2016-04-28T01:48:02.956Z,76.18
2016-04-28T01:49:02.959Z,75.98
2016-04-28T01:50:02.929Z,76.27
2016-04-28T01:51:02.918Z,77.23
2016-04-28T01:52:02.889Z,76.9
2016-04-28T01:53:02.875Z,76.9
2016-04-28T01:54:02.863Z,76.65
2016-04-28T01:55:02.850Z,77.04
2016-04-28T01:56:02.868Z,77.76
2016-04-28T01:57:02.839Z,77.09
2016-04-28T01:58:02.795Z,77.51
2016-04-28T01:59:02.782Z,77.48
2016-04-28T02:00:02.754Z,77.99
2016-04-28T02:01:02.741Z,77.67
2016-04-28T02:02:02.727Z,78.43
2016-04-28T02:03:02.700Z,78.43
2016-04-28T02:04:02.686Z,78.53
2016-04-28T02:05:02.674Z,78.34
2016-04-28T02:06:02.660Z,77.48
2016-04-28T02:07:02.647Z,77.61
2016-04-28T02:08:02.603Z,77.57
2016-04-28T02:09:02.638Z,78.57
2016-04-28T02:10:02.593Z,79.1
2016-04-28T02:11:02.627Z,78.81
2016-04-28T02:12:02.552Z,79
2016-04-28T02:13:02.538Z,78.72
2016-04-28T02:14:02.526Z,78.43
2016-04-28T02:15:02.496Z,77.67
2016-04-28T02:16:02.500Z,77.57
2016-04-28T02:17:02.471Z,77.57
2016-04-28T02:18:02.459Z,78.63
2016-04-28T02:19:02.430Z,79.1
2016-04-28T02:20:02.417Z,78.14
2016-04-28T02:21:02.404Z,78.81
2016-04-28T02:22:02.375Z,79
2016-04-28T02:23:02.384Z,78.43
2016-04-28T02:24:02.355Z,78.24
2016-04-28T02:25:02.327Z,78.72
2016-04-28T02:26:02.735Z,78.53
2016-04-28T02:27:02.301Z,79.39
2016-04-28T02:28:02.287Z,78.81
2016-04-28T02:29:02.260Z,78.24
2016-04-28T02:30:02.246Z,78.34
2016-04-28T02:31:02.218Z,78.43
2016-04-28T02:32:02.205Z,77.76
2016-04-28T02:33:02.192Z,78.53
2016-04-28T02:34:02.195Z,78.81
2016-04-28T02:35:02.150Z,78.72
2016-04-28T02:36:02.138Z,78.91
2016-04-28T02:37:02.125Z,78.63
2016-04-28T02:38:02.112Z,78.81
2016-04-28T02:39:02.083Z,78.87
2016-04-28T02:40:02.069Z,79.68
2016-04-28T02:41:02.526Z,78.87
2016-04-28T02:42:02.248Z,78.68
2016-04-28T02:43:02.031Z,78.24
2016-04-28T02:44:01.987Z,78.05
2016-04-28T02:45:01.991Z,78.81
2016-04-28T02:46:01.977Z,78.97
2016-04-28T02:47:01.949Z,78.81
2016-04-28T02:48:01.951Z,78.63
2016-04-28T02:49:01.923Z,79.16
2016-04-28T02:50:01.910Z,79.64
2016-04-28T02:51:01.881Z,79.64
2016-04-28T02:52:01.868Z,78.97
2016-04-28T02:53:01.854Z,79
2016-04-28T02:54:01.843Z,78.63
2016-04-28T02:55:01.829Z,79.2
2016-04-28T02:56:02.598Z,79.64
2016-04-28T02:57:04.132Z,80.5
2016-04-28T02:58:01.759Z,80.02
2016-04-28T02:59:01.746Z,79.35
2016-04-28T03:00:01.733Z,79.25
2016-04-28T03:01:01.705Z,79.64
2016-04-28T03:02:01.692Z,79.44
2016-04-28T03:03:01.679Z,80.3
2016-04-28T03:04:01.666Z,79.83
2016-04-28T03:05:01.637Z,79.35
2016-04-28T03:06:01.625Z,79.2
2016-04-28T03:07:01.595Z,79.1
2016-04-28T03:08:01.583Z,79.39
2016-04-28T03:09:01.570Z,79.2
2016-04-28T03:10:01.558Z,79.1
2016-04-28T03:11:03.138Z,78.53
2016-04-28T03:12:01.953Z,79.1
2016-04-28T03:13:01.503Z,79.77
2016-04-28T03:14:01.489Z,79.93
2016-04-28T03:15:01.492Z,78.78
2016-04-28T03:16:01.464Z,79.29
2016-04-28T03:17:01.419Z,79.2
2016-04-28T03:18:01.422Z,79.44
2016-04-28T03:19:01.394Z,79.83
2016-04-28T03:20:01.380Z,80.5
2016-04-28T03:21:01.352Z,80.5
2016-04-28T03:22:01.355Z,79.83
2016-04-28T03:23:01.327Z,79.16
2016-04-28T03:24:01.313Z,79.25
2016-04-28T03:25:01.285Z,79
2016-04-28T03:26:01.272Z,78.72
2016-04-28T03:27:01.868Z,78.53
2016-04-28T03:28:01.246Z,78.43
2016-04-28T03:29:01.217Z,78.72
2016-04-28T03:30:01.205Z,78.43
2016-04-28T03:31:01.192Z,78.81
2016-04-28T03:32:01.163Z,78.58
2016-04-28T03:33:01.150Z,80.35
2016-04-28T03:34:01.137Z,80.02
2016-04-28T03:35:01.125Z,79.16
2016-04-28T03:36:01.111Z,78.63
2016-04-28T03:37:01.083Z,79.2
2016-04-28T03:38:00.914Z,78.81
2016-04-28T03:39:01.057Z,78.91
2016-04-28T03:40:01.028Z,78.43
2016-04-28T03:41:00.983Z,78.43
2016-04-28T03:42:01.003Z,77.67
2016-04-28T03:43:00.974Z,77.42
2016-04-28T03:44:00.961Z,77.38
2016-04-28T03:45:00.947Z,77.42
2016-04-28T03:46:00.936Z,77.8
2016-04-28T03:47:00.907Z,77.76
2016-04-28T03:48:00.893Z,77.7
2016-04-28T03:49:00.881Z,77.67
2016-04-28T03:50:00.852Z,77.48
2016-04-28T03:51:00.855Z,77.48
2016-04-28T03:52:00.826Z,78.76
2016-04-28T03:53:00.813Z,78.72
2016-04-28T03:54:00.785Z,78.14
2016-04-28T03:55:00.771Z,77.67
2016-04-28T03:56:00.821Z,77.57
2016-04-28T03:57:01.590Z,77.48
2016-04-28T03:58:00.733Z,77.95
2016-04-28T03:59:00.720Z,76.9
2016-04-28T04:00:00.692Z,76.84
2016-04-28T04:01:00.663Z,75.98
2016-04-28T04:02:00.651Z,75.79
2016-04-28T04:03:00.684Z,75.98
2016-04-28T04:04:00.609Z,76.65
2016-04-28T04:05:00.612Z,77.42
2016-04-28T04:06:00.583Z,77.38
2016-04-28T04:07:00.570Z,77.28
2016-04-28T04:08:00.556Z,77.9
2016-04-28T04:09:00.528Z,77.57
2016-04-28T04:10:00.515Z,76.9
2016-04-28T04:11:00.972Z,76.52
2016-04-28T04:12:00.317Z,76.62
2016-04-28T04:13:00.477Z,77.38
2016-04-28T04:14:00.464Z,77.57
2016-04-28T04:15:00.435Z,77.48
2016-04-28T04:16:00.406Z,78.58
2016-04-28T04:17:00.409Z,78.49
2016-04-28T04:18:00.381Z,78.3
2016-04-28T04:19:00.368Z,78.39
2016-04-28T04:20:00.338Z,78.53
2016-04-28T04:21:00.327Z,78.24
2016-04-28T04:22:00.157Z,78.39
2016-04-28T04:23:00.300Z,78.68
2016-04-28T04:24:00.271Z,78.72
2016-04-28T04:25:00.260Z,78.53
2016-04-28T04:26:00.246Z,78.2
2016-04-28T04:27:00.311Z,78.68
2016-04-28T04:28:00.204Z,78.24
2016-04-28T04:29:00.176Z,78.24
2016-04-28T04:30:00.163Z,78.68
2016-04-28T04:31:00.150Z,78.2
2016-04-28T04:32:00.137Z,78.43
2016-04-28T04:33:00.109Z,77.76
2016-04-28T04:34:00.111Z,77.86
2016-04-28T04:35:00.082Z,78.34
2016-04-28T04:36:00.069Z,79.2
2016-04-28T04:37:00.057Z,80.11
2016-04-28T04:38:00.028Z,79.54
2016-04-28T04:39:00.015Z,80.11
2016-04-28T04:40:00.003Z,79.64
2016-04-28T04:41:00.005Z,79.64
2016-04-28T04:41:59.961Z,80.11
2016-04-28T04:42:59.947Z,80.88
2016-04-28T04:43:59.935Z,80.79
2016-04-28T04:44:59.906Z,80.59
2016-04-28T04:45:59.894Z,79.64
2016-04-28T04:46:59.864Z,80.5
2016-04-28T04:47:59.867Z,81.07
2016-04-28T04:48:59.839Z,80.11
2016-04-28T04:49:59.826Z,79.83
2016-04-28T04:50:59.813Z,79.96
2016-04-28T04:51:59.785Z,78.63
2016-04-28T04:52:59.616Z,78.81
2016-04-28T04:53:59.743Z,78.14
2016-04-28T04:54:59.730Z,78.43
2016-04-28T04:55:59.718Z,77.61
2016-04-28T04:56:59.704Z,78.38
2016-04-28T04:57:59.676Z,77.61
2016-04-28T04:58:59.693Z,77.61
2016-04-28T04:59:59.650Z,77.9
2016-04-28T05:00:59.668Z,77.99
2016-04-28T05:01:59.624Z,77.61
2016-04-28T05:02:59.611Z,77.61
2016-04-28T05:03:59.582Z,78.09
2016-04-28T05:04:59.554Z,78.47
2016-04-28T05:05:59.540Z,78.28
2016-04-28T05:06:59.528Z,78.34
2016-04-28T05:07:59.515Z,78.47
2016-04-28T05:08:59.487Z,78.19
2016-04-28T05:09:59.473Z,77.61
2016-04-28T05:10:59.460Z,77.51
2016-04-28T05:11:59.447Z,78.28
2016-04-28T05:12:59.420Z,79
2016-04-28T05:13:59.406Z,78.28
2016-04-28T05:14:59.393Z,78.09
2016-04-28T05:15:59.365Z,78.95
2016-04-28T05:16:59.352Z,78.63
2016-04-28T05:17:59.339Z,79.39
2016-04-28T05:18:59.325Z,80.92
2016-04-28T05:19:59.314Z,80.88
2016-04-28T05:20:59.299Z,80.59
2016-04-28T05:21:59.288Z,80.35
2016-04-28T05:22:59.243Z,80.92
2016-04-28T05:23:59.229Z,81.26
2016-04-28T05:24:59.216Z,81.55
2016-04-28T05:25:59.189Z,80.5
2016-04-28T05:26:59.926Z,80.63
2016-04-28T05:27:59.178Z,80.63
2016-04-28T05:28:59.150Z,80.92
2016-04-28T05:29:59.137Z,81.3
2016-04-28T05:30:59.108Z,80.82
2016-04-28T05:31:59.095Z,81.02
2016-04-28T05:32:59.083Z,80.44
2016-04-28T05:33:59.053Z,80.92
2016-04-28T05:34:59.057Z,80.35
2016-04-28T05:35:59.028Z,81.02
2016-04-28T05:36:59.014Z,80.92
2016-04-28T05:37:59.001Z,81.3
2016-04-28T05:38:58.974Z,81.45
2016-04-28T05:39:58.961Z,81.11
2016-04-28T05:40:58.947Z,80.92
2016-04-28T05:41:58.919Z,81.59
2016-04-28T05:42:58.906Z,81.55
2016-04-28T05:43:58.893Z,81.4
2016-04-28T05:44:58.865Z,81.55
2016-04-28T05:45:58.852Z,81.21
2016-04-28T05:46:58.822Z,80.92
2016-04-28T05:47:58.811Z,80.16
2016-04-28T05:48:58.797Z,81.02
2016-04-28T05:49:58.784Z,80.92
2016-04-28T05:50:58.755Z,81.02
2016-04-28T05:51:58.744Z,81.4
2016-04-28T05:52:58.730Z,81.02
2016-04-28T05:53:58.717Z,80.25
2016-04-28T05:54:58.704Z,80.44
2016-04-28T05:55:58.675Z,80.5
2016-04-28T05:56:58.507Z,79.68
2016-04-28T05:57:58.649Z,80.25
2016-04-28T05:58:58.637Z,80.82
2016-04-28T05:59:58.608Z,80.88
2016-04-28T06:00:58.601Z,80.59
2016-04-28T06:01:58.629Z,80.4
2016-04-28T06:02:58.641Z,80.06
2016-04-28T06:03:58.668Z,79.39
2016-04-28T06:04:58.697Z,79.68
2016-04-28T06:05:58.704Z,79.2
2016-04-28T06:06:58.706Z,79.49
2016-04-28T06:07:58.708Z,79.68
2016-04-28T06:08:58.695Z,79.29
2016-04-28T06:09:58.711Z,78.72
2016-04-28T06:10:58.712Z,78.63
2016-04-28T06:11:58.532Z,78.63
2016-04-28T06:12:58.665Z,79
2016-04-28T06:13:58.672Z,79.35
2016-04-28T06:14:58.649Z,79.68
2016-04-28T06:15:58.640Z,78.91
2016-04-28T06:16:58.645Z,78.43
2016-04-28T06:17:58.602Z,77.95
2016-04-28T06:18:58.591Z,78.43
2016-04-28T06:19:58.581Z,78.14
2016-04-28T06:20:58.569Z,78.34
2016-04-28T06:21:58.542Z,78.34
2016-04-28T06:22:58.529Z,78.43
2016-04-28T06:23:58.501Z,78.53
2016-04-28T06:24:58.505Z,77.86
2016-04-28T06:25:58.478Z,78.53
2016-04-28T06:26:58.464Z,77.86
2016-04-28T06:27:58.437Z,78.63
2016-04-28T06:28:58.423Z,78.43
2016-04-28T06:29:58.412Z,77.95
2016-04-28T06:30:58.399Z,77.76
2016-04-28T06:31:58.370Z,77.57
2016-04-28T06:32:58.358Z,77.48
2016-04-28T06:33:58.329Z,77.19
2016-04-28T06:34:58.316Z,77.28
2016-04-28T06:35:58.304Z,78.43
2016-04-28T06:36:58.290Z,77.67
2016-04-28T06:37:58.276Z,77.57
2016-04-28T06:38:58.264Z,77.86
2016-04-28T06:39:58.220Z,77.67
2016-04-28T06:40:58.223Z,77.76
2016-04-28T06:41:58.194Z,78.05
2016-04-28T06:42:58.181Z,77.57
2016-04-28T06:43:58.168Z,77.38
2016-04-28T06:44:58.155Z,77.38
2016-04-28T06:45:58.142Z,77.19
2016-04-28T06:46:58.129Z,76.9
2016-04-28T06:47:58.101Z,77
2016-04-28T06:48:58.088Z,77.19
2016-04-28T06:49:58.075Z,76.62
2016-04-28T06:50:58.046Z,75.85
2016-04-28T06:51:58.050Z,76.18
2016-04-28T06:52:58.005Z,75.95
2016-04-28T06:53:57.992Z,75.6
2016-04-28T06:54:57.979Z,75.41
2016-04-28T06:55:57.950Z,75.12
2016-04-28T06:56:58.766Z,75.31
2016-04-28T06:57:57.924Z,74.55
2016-04-28T06:58:57.740Z,74.93
2016-04-28T06:59:57.898Z,73.79
2016-04-28T07:00:57.870Z,74.3
2016-04-28T07:01:57.858Z,75.6
2016-04-28T07:02:57.844Z,74.84
2016-04-28T07:03:57.815Z,74.45
2016-04-28T07:04:57.819Z,74.07
2016-04-28T07:05:57.790Z,74.16
2016-04-28T07:06:57.776Z,74.16
2016-04-28T07:07:57.764Z,73.5
2016-04-28T07:08:57.735Z,73.82
2016-04-28T07:09:57.722Z,74.77
2016-04-28T07:10:57.694Z,74.45
2016-04-28T07:11:57.743Z,75.02
2016-04-28T07:12:59.246Z,75.31
2016-04-28T07:13:57.656Z,74.45
2016-04-28T07:14:57.642Z,75.09
2016-04-28T07:15:57.614Z,74.84
2016-04-28T07:16:57.600Z,75.31
2016-04-28T07:17:57.587Z,75.02
2016-04-28T07:18:57.575Z,75.31
2016-04-28T07:19:57.546Z,75.22
2016-04-28T07:20:57.533Z,75.22
2016-04-28T07:21:57.520Z,75.85
2016-04-28T07:22:57.509Z,75.56
2016-04-28T07:23:57.480Z,75.22
2016-04-28T07:24:57.467Z,75.6
2016-04-28T07:25:57.454Z,75.56
2016-04-28T07:26:57.520Z,76.23
2016-04-28T07:27:57.912Z,75.95
2016-04-28T07:28:57.399Z,76.14
2016-04-28T07:29:57.386Z,75.85
2016-04-28T07:30:57.373Z,75.95
2016-04-28T07:31:57.361Z,75.66
2016-04-28T07:32:57.333Z,75.85
2016-04-28T07:33:57.304Z,75.56
2016-04-28T07:34:57.306Z,75.51
2016-04-28T07:35:57.278Z,74.16
2016-04-28T07:36:57.264Z,74.36
2016-04-28T07:37:57.236Z,75.02
2016-04-28T07:38:57.238Z,75.12
2016-04-28T07:39:57.210Z,74.36
2016-04-28T07:40:57.197Z,74.45
2016-04-28T07:41:57.013Z,74.74
2016-04-28T07:42:57.155Z,74.55
2016-04-28T07:43:57.143Z,75.02
2016-04-28T07:44:57.115Z,74.45
2016-04-28T07:45:57.102Z,73.97
2016-04-28T07:46:57.089Z,73.69
2016-04-28T07:47:57.076Z,74.07
2016-04-28T07:48:57.046Z,74.36
2016-04-28T07:49:57.049Z,73.79
2016-04-28T07:50:57.037Z,73.97
2016-04-28T07:51:57.008Z,74.26
2016-04-28T07:52:56.979Z,73.59
2016-04-28T07:53:56.982Z,72.63
2016-04-28T07:54:56.985Z,73.44
2016-04-28T07:55:56.957Z,73.3
2016-04-28T07:56:56.788Z,73.88
2016-04-28T07:57:58.150Z,73.5
2016-04-28T07:58:56.887Z,73.88
2016-04-28T07:59:56.873Z,73.05
2016-04-28T08:00:56.861Z,73.15
2016-04-28T08:01:56.832Z,73.24
2016-04-28T08:02:57.256Z,72.86
2016-04-28T08:03:56.806Z,72.96
2016-04-28T08:04:56.793Z,72.86
2016-04-28T08:05:56.639Z,73.15
2016-04-28T08:06:56.658Z,74.07
2016-04-28T08:07:56.657Z,73.3
2016-04-28T08:08:56.706Z,73.05
2016-04-28T08:09:56.693Z,73.15
2016-04-28T08:10:56.681Z,72.63
2016-04-28T08:11:59.542Z,72.67
2016-04-28T08:12:56.764Z,72.09
2016-04-28T08:13:56.609Z,71.75
2016-04-28T08:14:56.613Z,72.77
2016-04-28T08:15:56.444Z,72.77
2016-04-28T08:16:56.572Z,73.05
2016-04-28T08:17:56.559Z,73.44
2016-04-28T08:18:56.562Z,73.4
2016-04-28T08:19:56.517Z,72.86
2016-04-28T08:20:56.503Z,73.5
2016-04-28T08:21:56.491Z,73.88
2016-04-28T08:22:56.478Z,73.3
2016-04-28T08:23:56.450Z,73.05
2016-04-28T08:24:56.436Z,73.72
2016-04-28T08:25:56.424Z,74.16
2016-04-28T08:26:57.505Z,73.11
2016-04-28T08:27:56.383Z,72.19
2016-04-28T08:28:56.370Z,72.86
2016-04-28T08:29:56.357Z,72.48
2016-04-28T08:30:56.328Z,73.02
2016-04-28T08:31:56.330Z,72.54
2016-04-28T08:32:56.302Z,73.24
2016-04-28T08:33:56.289Z,73.02
2016-04-28T08:34:56.276Z,72.86
2016-04-28T08:35:56.248Z,71.62
2016-04-28T08:36:56.235Z,71.91
2016-04-28T08:37:56.206Z,71.91
2016-04-28T08:38:56.209Z,71.04
2016-04-28T08:39:56.195Z,71.71
2016-04-28T08:40:56.183Z,71.14
2016-04-28T08:41:59.202Z,71.14
2016-04-28T08:42:56.142Z,70.28
2016-04-28T08:43:56.129Z,70.21
2016-04-28T08:44:56.115Z,69.83
2016-04-28T08:45:56.118Z,70.47
2016-04-28T08:46:56.074Z,70.85
2016-04-28T08:47:56.061Z,70.28
2016-04-28T08:48:56.033Z,70.47
2016-04-28T08:49:56.020Z,71.42
2016-04-28T08:50:56.007Z,71.14
2016-04-28T08:51:55.978Z,70.76
2016-04-28T08:52:55.981Z,71.2
2016-04-28T08:53:55.952Z,71.77
2016-04-28T08:54:55.939Z,72.44
2016-04-28T08:55:55.911Z,72.25
2016-04-28T08:56:55.758Z,71.87
2016-04-28T08:57:55.916Z,72.06
2016-04-28T08:58:55.888Z,71.87
2016-04-28T08:59:55.843Z,72.09
2016-04-28T09:00:57.143Z,71.87
2016-04-28T09:01:55.818Z,71.62
2016-04-28T09:02:55.852Z,71.33
2016-04-28T09:03:55.777Z,71.14
2016-04-28T09:04:55.779Z,70.76
2016-04-28T09:05:55.766Z,71.04
2016-04-28T09:06:55.738Z,71.33
2016-04-28T09:07:55.724Z,71.42
2016-04-28T09:08:55.712Z,70.95
2016-04-28T09:09:55.698Z,70.76
2016-04-28T09:10:55.732Z,69.8
2016-04-28T09:11:55.673Z,70.21
2016-04-28T09:12:55.488Z,69.89
2016-04-28T09:13:55.616Z,69.7
2016-04-28T09:14:55.603Z,70.28
2016-04-28T09:15:55.590Z,70.09
2016-04-28T09:16:55.576Z,70.03
2016-04-28T09:17:55.579Z,69.89
2016-04-28T09:18:55.614Z,69.6
2016-04-28T09:19:55.537Z,68.87
2016-04-28T09:20:55.509Z,69.23
2016-04-28T09:21:56.637Z,68.84
2016-04-28T09:22:55.467Z,68.11
2016-04-28T09:23:55.470Z,68.4
2016-04-28T09:24:55.442Z,67.91
2016-04-28T09:25:55.429Z,67.91
2016-04-28T09:26:58.463Z,68.3
2016-04-28T09:27:55.684Z,68.3
2016-04-28T09:28:56.405Z,67.82
2016-04-28T09:29:55.393Z,67.91
2016-04-28T09:30:55.348Z,67.57
2016-04-28T09:31:55.382Z,68.4
2016-04-28T09:32:55.323Z,68.49
2016-04-28T09:33:55.310Z,67.38
2016-04-28T09:34:55.937Z,65.75
2016-04-28T09:35:55.284Z,65.97
2016-04-28T09:36:55.599Z,66.51
2016-04-28T09:37:55.211Z,66.61
2016-04-28T09:38:55.213Z,67.44
2016-04-28T09:39:55.185Z,66.19
2016-04-28T09:40:55.172Z,66.71
2016-04-28T09:41:55.175Z,66.42
2016-04-28T09:42:55.819Z,67.18
2016-04-28T09:43:55.134Z,67.47
2016-04-28T09:44:55.137Z,66.71
2016-04-28T09:45:55.107Z,66.42
2016-04-28T09:46:55.079Z,66.45
2016-04-28T09:47:55.066Z,65.68
2016-04-28T09:48:55.053Z,65.2
2016-04-28T09:49:55.025Z,65.59
2016-04-28T09:50:55.012Z,65.3
2016-04-28T09:51:54.998Z,65.2
2016-04-28T09:52:54.845Z,63.76
2016-04-28T09:53:54.973Z,64.56
2016-04-28T09:54:54.960Z,64.82
2016-04-28T09:55:54.947Z,64.72
2016-04-28T09:56:54.777Z,65.33
2016-04-28T09:57:54.889Z,65.97
2016-04-28T09:58:54.892Z,66.61
2016-04-28T09:59:54.880Z,66.06
2016-04-28T10:00:54.852Z,65.88
2016-04-28T10:01:54.838Z,65.01
2016-04-28T10:02:54.825Z,63.79
2016-04-28T10:03:54.797Z,63.83
2016-04-28T10:04:54.799Z,63.73
2016-04-28T10:05:54.630Z,63.25
2016-04-28T10:06:54.774Z,64.12
2016-04-28T10:07:54.746Z,63.6
2016-04-28T10:08:54.733Z,63.45
2016-04-28T10:09:54.719Z,63.99
2016-04-28T10:10:54.707Z,64.76
2016-04-28T10:11:56.897Z,64.76
2016-04-28T10:12:54.570Z,64.76
2016-04-28T10:13:54.667Z,63.35
2016-04-28T10:14:54.640Z,62.77
2016-04-28T10:15:54.626Z,62.96
2016-04-28T10:16:54.612Z,65.52
2016-04-28T10:17:54.600Z,64.09
2016-04-28T10:18:54.571Z,62.65
2016-04-28T10:19:54.558Z,63.16
2016-04-28T10:20:54.546Z,62.68
2016-04-28T10:21:54.533Z,61.91
2016-04-28T10:22:56.129Z,61.65
2016-04-28T10:23:54.538Z,61.75
2016-04-28T10:24:54.495Z,60.98
2016-04-28T10:25:54.481Z,62.81
2016-04-28T10:26:55.047Z,64.95
2016-04-28T10:27:54.455Z,65.33
2016-04-28T10:28:54.427Z,65.97
2016-04-28T10:29:54.414Z,65.3
2016-04-28T10:30:54.400Z,63.99
2016-04-28T10:31:54.419Z,62.77
2016-04-28T10:32:54.391Z,61.46
2016-04-28T10:33:54.377Z,60.88
2016-04-28T10:34:54.396Z,60.72
2016-04-28T10:35:54.336Z,60.05
2016-04-28T10:36:54.324Z,58.73
2016-04-28T10:37:54.295Z,58.06
2016-04-28T10:38:54.296Z,56.74
2016-04-28T10:39:54.268Z,57.64
2016-04-28T10:40:54.255Z,58.25
2016-04-28T10:41:55.196Z,56.74
2016-04-28T10:42:54.229Z,56.96
2016-04-28T10:43:54.217Z,55.71
2016-04-28T10:44:54.188Z,54.39
2016-04-28T10:45:54.176Z,54.68
2016-04-28T10:46:54.163Z,58.89
2016-04-28T10:47:53.993Z,57.87
2016-04-28T10:48:54.152Z,56.93
2016-04-28T10:49:54.140Z,57.35
2016-04-28T10:50:54.142Z,57.9
2016-04-28T10:51:54.098Z,59.24
2016-04-28T10:52:54.084Z,60.46
2016-04-28T10:53:54.103Z,61.58
2016-04-28T10:54:54.059Z,61.46
2016-04-28T10:55:54.062Z,61.3
2016-04-28T10:56:54.486Z,62.04
2016-04-28T10:57:53.880Z,58.89
2016-04-28T10:58:54.008Z,57.35
2016-04-28T10:59:54.010Z,58.37
2016-04-28T11:00:53.981Z,60.94
2016-04-28T11:01:53.969Z,58.13
2016-04-28T11:02:53.956Z,51.62
2016-04-28T11:03:53.942Z,51.53
2016-04-28T11:04:53.961Z,49.05
2016-04-28T11:05:53.916Z,43.3
2016-04-28T11:06:53.919Z,41.39
2016-04-28T11:07:53.907Z,38.6
2016-04-28T11:08:53.893Z,37.01
2016-04-28T11:09:53.865Z,37.04
2016-04-28T11:10:53.868Z,39.47
2016-04-28T11:11:53.855Z,41.74
2016-04-28T11:12:53.685Z,38.15
2016-04-28T11:13:53.844Z,37.01
2016-04-28T11:14:53.816Z,40.59
2016-04-28T11:15:53.818Z,39.84
2016-04-28T11:16:53.806Z,39.34
2016-04-28T11:17:53.824Z,37.74
2016-04-28T11:18:53.811Z,39.84
2016-04-28T11:19:53.798Z,34.25
2016-04-28T11:20:53.794Z,36.16
2016-04-28T11:21:53.798Z,39.92
2016-04-28T11:22:53.785Z,42.2
2016-04-28T11:23:53.772Z,42.55
2016-04-28T11:24:53.775Z,41.39
2016-04-28T11:25:53.792Z,40.67
2016-04-28T11:26:53.874Z,35.14
2016-04-28T11:27:54.470Z,38.23
2016-04-28T11:28:53.738Z,33.51
2016-04-28T11:29:53.944Z,29.36
2016-04-28T11:30:53.743Z,30.86
2016-04-28T11:31:53.731Z,32.86
2016-04-28T11:32:53.734Z,31.04
2016-04-28T11:33:53.721Z,31.77
2016-04-28T11:34:53.723Z,37.48
2016-04-28T11:35:53.710Z,40.13
2016-04-28T11:36:53.712Z,40.77
2016-04-28T11:37:53.699Z,42.18
2016-04-28T11:38:53.718Z,38.15
2016-04-28T11:39:53.705Z,32.82
2016-04-28T11:40:53.708Z,30.77
2016-04-28T11:41:54.101Z,31.45
2016-04-28T11:42:54.557Z,33.78
2016-04-28T11:43:53.701Z,28.63
2016-04-28T11:44:53.704Z,34.5
2016-04-28T11:45:53.706Z,33.07
2016-04-28T11:46:53.740Z,38.15
2016-04-28T11:47:53.696Z,43.02
2016-04-28T11:48:53.729Z,39.01
2016-04-28T11:49:53.686Z,39.74
2016-04-28T11:50:53.689Z,38.78
2016-04-28T11:51:53.692Z,35.13
2016-04-28T11:52:53.694Z,33.77
2016-04-28T11:53:53.696Z,35.65
2016-04-28T11:54:53.683Z,33.14
2016-04-28T11:55:53.670Z,35.21
2016-04-28T11:56:53.673Z,30.15
2016-04-28T11:57:53.551Z,31.1
2016-04-28T11:58:53.756Z,37
2016-04-28T11:59:53.681Z,36.02
2016-04-28T12:00:53.669Z,38.12
2016-04-28T12:01:53.686Z,35.4
2016-04-28T12:02:53.674Z,33.62
2016-04-28T12:05:53.666Z,31.06
2016-04-28T12:06:53.653Z,29.27
2016-04-28T12:07:53.827Z,31.57
2016-04-28T12:08:53.705Z,38.13
2016-04-28T12:09:53.660Z,35.03
2016-04-28T12:10:53.742Z,31.71
2016-04-28T12:11:53.666Z,33.23
2016-04-28T12:12:53.498Z,39.86
2016-04-28T12:13:53.656Z,38.43
2016-04-28T12:14:53.659Z,38.68
2016-04-28T12:15:53.646Z,35.96
2016-04-28T12:16:53.649Z,35.41
2016-04-28T12:17:53.667Z,31.4
2016-04-28T12:18:53.639Z,34.01
2016-04-28T12:19:53.657Z,34.52
2016-04-28T12:20:53.645Z,29.85
2016-04-28T12:21:53.662Z,27.15
2016-04-28T12:22:53.650Z,24.05
2016-04-28T12:23:53.667Z,22.69
2016-04-28T12:24:53.655Z,21.07
2016-04-28T12:25:53.641Z,17.76
2016-04-28T12:26:53.644Z,21.05
2016-04-28T12:27:53.522Z,22.39
2016-04-28T12:28:53.666Z,19.96
2016-04-28T12:29:53.669Z,22.12
2016-04-28T12:30:53.671Z,29.42
2016-04-28T12:31:53.658Z,25.64
2016-04-28T12:32:53.661Z,22.41
2016-04-28T12:33:53.664Z,21.98
2016-04-28T12:34:53.696Z,22.89
2016-04-28T12:35:53.668Z,22.26
2016-04-28T12:36:53.749Z,25.37
2016-04-28T12:37:53.705Z,29.33
2016-04-28T12:38:53.677Z,27.45
2016-04-28T12:39:53.680Z,25.74
2016-04-28T12:40:53.666Z,27.17
2016-04-28T12:41:53.701Z,25.76
2016-04-28T12:42:56.360Z,29.99
2016-04-28T12:43:56.925Z,27.56
2016-04-28T12:44:55.567Z,26.53
2016-04-28T12:45:53.679Z,30.11
2016-04-28T12:46:53.948Z,32.76
2016-04-28T12:47:53.701Z,27.72
2016-04-28T12:48:53.687Z,27.62
2016-04-28T12:49:53.690Z,28.19
2016-04-28T12:50:53.693Z,32.45
2016-04-28T12:51:53.696Z,30.61
2016-04-28T12:52:53.761Z,36.12
2016-04-28T12:53:53.701Z,34.39
2016-04-28T12:54:53.704Z,33.43
2016-04-28T12:55:53.706Z,31.77
2016-04-28T12:56:53.709Z,29.68
2016-04-28T12:57:56.461Z,27.95